Time;durP1;ratioP1;P1;durP2;ratioP2;P2;SDS_P1;SDS_P2;PMS_P1;PMS_P2;Temp;Humidity;BMP_temperature;BMP_pressure;BME280_temperature;BME280_humidity;BME280_pressure;Samples;Min_cycle;Max_cycle;Signal;HPM_P1;HPM_P2
2023/01/30 00:03:06;;;;;;;79.55;36.92;;;;;;;;;;4899395;29;20088;-95
2023/01/30 00:05:51;;;;;;;84.15;36.05;;;;;;;;;;4897232;29;20119;-96
2023/01/30 00:08:42;;;;;;;74.23;35.50;;;;;;;;;;4884200;29;20059;-96
2023/01/30 00:11:21;;;;;;;75.70;34.25;;;;;;;;;;4895455;29;20025;-94
2023/01/30 00:14:02;;;;;;;78.30;35.28;;;;;;;;;;4896611;29;20415;-95
2023/01/30 00:16:44;;;;;;;78.88;34.47;;;;;;;;;;4883556;29;20035;-95
2023/01/30 00:19:29;;;;;;;78.50;34.83;;;;;;;;;;4880255;29;20044;-95
2023/01/30 00:22:04;;;;;;;72.57;33.28;;;;;;;;;;4882149;29;20080;-95
2023/01/30 00:24:33;;;;;;;70.45;31.55;;;;;;;;;;4879853;29;20052;-93
2023/01/30 00:27:05;;;;;;;64.57;29.38;;;;;;;;;;4877609;29;20053;-95
2023/01/30 00:29:36;;;;;;;67.53;30.45;;;;;;;;;;4875367;29;20044;-96
2023/01/30 00:32:03;;;;;;;66.05;31.33;;;;;;;;;;4876104;29;20033;-94
2023/01/30 00:34:47;;;;;;;65.57;30.08;;;;;;;;;;4875983;29;20052;-96
2023/01/30 00:37:28;;;;;;;64.13;29.48;;;;;;;;;;4875545;29;20033;-95
2023/01/30 00:40:12;;;;;;;72.03;30.90;;;;;;;;;;4875397;29;20255;-95
2023/01/30 00:48:17;;;;;;;63.13;28.92;;;;;;;;;;4953601;29;20527;-96
2023/01/30 00:50:46;;;;;;;60.75;28.23;;;;;;;;;;4936341;29;20023;-96
2023/01/30 00:53:19;;;;;;;56.38;26.48;;;;;;;;;;4936245;29;20043;-95
2023/01/30 00:55:56;;;;;;;54.20;26.52;;;;;;;;;;4936505;29;20058;-95
2023/01/30 00:58:50;;;;;;;;;;;;;;;;;;;;;
2023/01/30 01:01:37;;;;;;;55.20;25.88;;;;;;;;;;4957849;29;20678;-94
2023/01/30 01:04:07;;;;;;;58.75;27.10;;;;;;;;;;4950999;29;20363;-93
2023/01/30 01:06:58;;;;;;;56.90;27.60;;;;;;;;;;4943137;29;20028;-94
2023/01/30 01:12:47;;;;;;;;;;;;;;;;;;;;;
2023/01/30 01:15:34;;;;;;;66.10;29.20;;;;;;;;;;4953757;29;20037;-96
2023/01/30 01:18:06;;;;;;;60.50;28.02;;;;;;;;;;4936994;29;20061;-94
2023/01/30 01:20:44;;;;;;;62.53;28.02;;;;;;;;;;4936033;29;20039;-94
2023/01/30 01:23:25;;;;;;;69.13;30.63;;;;;;;;;;4936353;29;20032;-95
2023/01/30 01:25:54;;;;;;;67.78;29.80;;;;;;;;;;4939673;29;20030;-95
2023/01/30 01:28:26;;;;;;;58.88;29.00;;;;;;;;;;4937046;29;20035;-95
2023/01/30 01:30:56;;;;;;;58.15;27.40;;;;;;;;;;4930397;29;20047;-95
2023/01/30 01:33:32;;;;;;;67.32;30.20;;;;;;;;;;4928137;29;20039;-95
2023/01/30 01:36:41;;;;;;;66.72;29.67;;;;;;;;;;4939572;29;20098;-95
2023/01/30 01:39:15;;;;;;;63.85;28.30;;;;;;;;;;4955719;29;20365;-96
2023/01/30 01:41:41;;;;;;;75.28;34.03;;;;;;;;;;4939994;29;20031;-94
2023/01/30 01:44:17;;;;;;;68.57;30.85;;;;;;;;;;4945269;29;20027;-96
2023/01/30 01:47:02;;;;;;;61.78;28.95;;;;;;;;;;4955151;28;20032;-95
2023/01/30 01:49:55;;;;;;;62.22;28.98;;;;;;;;;;4941544;29;20032;-95
2023/01/30 01:52:22;;;;;;;72.32;32.05;;;;;;;;;;4930449;29;20075;-96
2023/01/30 01:55:06;;;;;;;67.70;29.02;;;;;;;;;;4938960;29;20403;-95
2023/01/30 01:57:35;;;;;;;;;;;;;;;;;;4938926;29;20037;-93
2023/01/30 02:00:43;;;;;;;54.25;25.23;;;;;;;;;;4938618;29;19914;-94
2023/01/30 02:03:27;;;;;;;56.97;25.48;;;;;;;;;;4844371;29;20033;-94
2023/01/30 02:06:11;;;;;;;;;;;;;;;;;;;;;
2023/01/30 02:08:49;;;;;;;61.97;27.58;;;;;;;;;;4859762;29;20194;-94
2023/01/30 02:11:34;;;;;;;60.40;27.02;;;;;;;;;;4843989;29;20486;-93
2023/01/30 02:14:06;;;;;;;60.00;27.38;;;;;;;;;;4853092;29;20053;-96
2023/01/30 02:16:33;;;;;;;65.87;29.50;;;;;;;;;;4895114;29;20559;-92
2023/01/30 02:19:31;;;;;;;63.92;28.83;;;;;;;;;;4880490;29;20044;-96
2023/01/30 02:25:21;;;;;;;67.47;29.85;;;;;;;;;;4895661;29;20039;-94
2023/01/30 02:31:11;;;;;;;76.38;31.38;;;;;;;;;;4896596;29;20070;-93
2023/01/30 02:36:59;;;;;;;66.20;27.42;;;;;;;;;;5027417;23;20070;-93
2023/01/30 02:39:44;;;;;;;61.42;27.80;;;;;;;;;;4937599;29;20040;-93
2023/01/30 02:42:44;;;;;;;59.83;27.52;;;;;;;;;;4937856;29;20031;-93
2023/01/30 02:45:32;;;;;;;57.88;27.42;;;;;;;;;;4937753;29;20037;-93
2023/01/30 02:51:26;;;;;;;62.45;27.33;;;;;;;;;;4939582;29;20082;-92
2023/01/30 02:54:00;;;;;;;67.18;30.58;;;;;;;;;;4936605;29;20042;-94
2023/01/30 02:56:29;;;;;;;69.88;29.85;;;;;;;;;;4937627;29;20027;-93
2023/01/30 02:59:14;;;;;;;66.90;28.40;;;;;;;;;;4937798;29;20108;-93
2023/01/30 03:01:53;;;;;;;63.13;27.85;;;;;;;;;;4937904;29;20027;-92
2023/01/30 03:04:48;;;;;;;78.85;32.78;;;;;;;;;;4942309;29;20042;-93
2023/01/30 03:07:39;;;;;;;73.30;31.80;;;;;;;;;;4900405;29;20388;-95
2023/01/30 03:12:57;;;;;;;70.80;29.48;;;;;;;;;;4954447;29;20499;-93
2023/01/30 03:18:14;;;;;;;77.90;31.83;;;;;;;;;;4953920;29;20474;-93
2023/01/30 03:20:54;;;;;;;92.68;36.10;;;;;;;;;;4937185;29;20035;-93
2023/01/30 03:23:30;;;;;;;;;;;;;;;;;;;;;
2023/01/30 03:26:05;;;;;;;79.13;32.63;;;;;;;;;;4954716;29;20383;-94
2023/01/30 03:28:44;;;;;;;73.50;31.42;;;;;;;;;;4937134;29;20037;-93
2023/01/30 03:31:16;;;;;;;70.93;31.50;;;;;;;;;;4936941;29;20106;-91
2023/01/30 03:33:45;;;;;;;79.38;31.35;;;;;;;;;;4936833;29;20036;-94
2023/01/30 03:36:27;;;;;;;;;;;;;;;;;;;;;
2023/01/30 03:38:53;;;;;;;70.43;30.52;;;;;;;;;;4953994;29;20027;-94
2023/01/30 03:41:33;;;;;;;;;;;;;;;;;;;;;
2023/01/30 03:46:47;;;;;;;77.28;32.55;;;;;;;;;;5189238;23;20162;-93
2023/01/30 03:49:17;;;;;;;81.32;33.20;;;;;;;;;;4936926;29;20027;-93
2023/01/30 03:51:46;;;;;;;73.88;31.45;;;;;;;;;;4936895;29;20047;-95
2023/01/30 03:54:22;;;;;;;69.20;30.08;;;;;;;;;;4936877;29;20524;-94
2023/01/30 03:56:54;;;;;;;70.68;30.65;;;;;;;;;;4936815;29;20625;-95
2023/01/30 03:59:26;;;;;;;77.32;31.33;;;;;;;;;;4936969;29;20031;-94
2023/01/30 04:01:58;;;;;;;82.13;31.30;;;;;;;;;;4938908;29;20058;-93
2023/01/30 04:04:24;;;;;;;76.45;30.25;;;;;;;;;;4896428;29;20123;-96
2023/01/30 04:06:54;;;;;;;74.65;30.40;;;;;;;;;;4878758;29;20087;-96
2023/01/30 04:09:20;;;;;;;73.95;31.58;;;;;;;;;;4839163;29;20037;-96
2023/01/30 04:11:52;;;;;;;74.50;32.28;;;;;;;;;;4839594;29;20046;-94
2023/01/30 04:14:55;;;;;;;67.82;29.15;;;;;;;;;;4839081;29;20145;-94
2023/01/30 04:20:40;;;;;;;76.28;30.38;;;;;;;;;;4813259;29;20393;-93
2023/01/30 04:23:21;;;;;;;66.07;28.35;;;;;;;;;;4838226;29;20033;-94
2023/01/30 04:25:59;;;;;;;71.03;29.83;;;;;;;;;;4843527;29;20042;-94
2023/01/30 04:28:28;;;;;;;66.07;28.23;;;;;;;;;;4855786;29;20022;-93
2023/01/30 04:30:57;;;;;;;75.50;33.08;;;;;;;;;;4842029;29;20049;-93
2023/01/30 04:33:44;;;;;;;75.65;31.75;;;;;;;;;;4839106;29;20051;-91
2023/01/30 04:36:28;;;;;;;77.22;33.42;;;;;;;;;;4883172;29;20033;-93
2023/01/30 04:39:09;;;;;;;71.32;33.03;;;;;;;;;;4870266;29;20048;-93
2023/01/30 04:41:51;;;;;;;86.18;35.20;;;;;;;;;;4916015;29;20040;-92
2023/01/30 04:44:23;;;;;;;81.82;33.63;;;;;;;;;;4916112;29;20051;-93
2023/01/30 04:46:54;;;;;;;68.65;31.77;;;;;;;;;;4930583;29;20047;-93
2023/01/30 04:49:25;;;;;;;91.57;39.25;;;;;;;;;;4917635;29;20042;-95
2023/01/30 04:51:51;;;;;;;92.88;36.35;;;;;;;;;;4916031;29;20036;-93
2023/01/30 04:54:23;;;;;;;94.32;38.13;;;;;;;;;;4927124;29;20041;-93
2023/01/30 04:56:56;;;;;;;85.25;35.95;;;;;;;;;;4937407;29;20027;-92
2023/01/30 04:59:28;;;;;;;81.70;32.65;;;;;;;;;;4937692;29;20046;-95
2023/01/30 05:01:54;;;;;;;77.70;33.60;;;;;;;;;;4939941;29;20023;-95
2023/01/30 05:12:36;;;;;;;70.82;32.00;;;;;;;;;;4966229;23;20058;-96
2023/01/30 05:15:05;;;;;;;72.72;32.30;;;;;;;;;;4956286;29;20364;-95
2023/01/30 05:20:21;;;;;;;70.93;29.58;;;;;;;;;;4917303;29;20036;-94
2023/01/30 05:23:22;;;;;;;;;;;;;;;;;;;;;
2023/01/30 05:25:46;;;;;;;67.43;28.23;;;;;;;;;;4951669;29;20031;-93
2023/01/30 05:28:51;;;;;;;76.65;30.05;;;;;;;;;;4939984;29;20059;-95
2023/01/30 05:31:22;;;;;;;75.22;30.45;;;;;;;;;;4957345;29;20023;-93
2023/01/30 05:33:55;;;;;;;74.18;29.65;;;;;;;;;;4940208;29;20106;-96
2023/01/30 05:36:30;;;;;;;60.15;27.08;;;;;;;;;;4939716;29;20023;-89
2023/01/30 05:41:28;;;;;;;63.17;26.83;;;;;;;;;;5067558;23;20134;-90
2023/01/30 05:47:15;;;;;;;94.97;38.42;;;;;;;;;;4956712;29;20060;-89
2023/01/30 05:49:44;;;;;;;96.97;40.08;;;;;;;;;;4939030;29;20110;-91
2023/01/30 05:52:28;;;;;;;125.03;50.38;;;;;;;;;;4938819;29;20134;-90
2023/01/30 05:57:59;;;;;;;91.93;39.85;;;;;;;;;;4944170;29;20070;-91
2023/01/30 06:00:25;;;;;;;84.68;37.92;;;;;;;;;;4919219;29;20040;-90
2023/01/30 06:03:01;;;;;;;80.95;37.33;;;;;;;;;;4919741;29;20031;-88
2023/01/30 06:05:37;;;;;;;;;;;;;;;;;;;;;
2023/01/30 06:08:03;;;;;;;103.70;46.85;;;;;;;;;;4936214;29;20038;-90
2023/01/30 06:10:29;;;;;;;90.78;39.63;;;;;;;;;;4920825;29;20419;-89
2023/01/30 06:12:59;;;;;;;80.90;38.15;;;;;;;;;;4921384;29;20034;-88
2023/01/30 06:15:43;;;;;;;78.85;35.03;;;;;;;;;;4936685;29;20035;-87
2023/01/30 06:18:09;;;;;;;71.60;30.95;;;;;;;;;;4923101;29;20484;-90
2023/01/30 06:20:36;;;;;;;81.32;35.85;;;;;;;;;;4938479;29;20023;-90
2023/01/30 06:23:05;;;;;;;97.60;43.13;;;;;;;;;;4938169;29;20038;-92
2023/01/30 06:25:34;;;;;;;86.15;37.70;;;;;;;;;;4944382;29;20027;-89
2023/01/30 06:28:01;;;;;;;66.68;29.83;;;;;;;;;;4961451;29;20043;-88
2023/01/30 06:30:27;;;;;;;70.90;30.52;;;;;;;;;;4938285;29;20038;-88
2023/01/30 06:32:53;;;;;;;69.72;31.05;;;;;;;;;;4938204;29;20027;-90
2023/01/30 06:35:19;;;;;;;71.60;35.90;;;;;;;;;;4937941;29;20122;-91
2023/01/30 06:37:45;;;;;;;68.20;35.85;;;;;;;;;;4938355;29;20051;-90
2023/01/30 06:40:14;;;;;;;65.15;30.33;;;;;;;;;;4937817;29;20110;-91
2023/01/30 06:42:47;;;;;;;63.05;28.15;;;;;;;;;;4937985;29;20042;-90
2023/01/30 06:45:14;;;;;;;55.97;26.38;;;;;;;;;;4937743;29;20046;-92
2023/01/30 06:47:47;;;;;;;48.60;23.50;;;;;;;;;;4937757;29;20434;-92
2023/01/30 06:50:14;;;;;;;41.08;21.27;;;;;;;;;;4938048;29;20042;-91
2023/01/30 06:52:47;;;;;;;42.80;20.85;;;;;;;;;;4937843;29;20030;-89
2023/01/30 06:55:18;;;;;;;44.50;20.52;;;;;;;;;;4938110;29;20031;-88
2023/01/30 06:57:45;;;;;;;39.42;20.58;;;;;;;;;;4937782;29;20527;-89
2023/01/30 07:00:13;;;;;;;39.60;20.75;;;;;;;;;;4938251;29;20023;-92
2023/01/30 07:02:43;;;;;;;36.28;19.70;;;;;;;;;;4937760;29;20028;-90
2023/01/30 07:05:10;;;;;;;41.00;21.17;;;;;;;;;;4938315;29;20078;-87
2023/01/30 07:07:37;;;;;;;38.63;20.05;;;;;;;;;;4938314;29;20047;-86
2023/01/30 07:10:03;;;;;;;36.10;18.42;;;;;;;;;;4956007;29;20027;-89
2023/01/30 07:12:41;;;;;;;37.13;19.10;;;;;;;;;;4953600;29;20037;-91
2023/01/30 07:18:11;;;;;;;36.90;17.40;;;;;;;;;;4957960;29;20582;-89
2023/01/30 07:21:08;;;;;;;37.10;18.90;;;;;;;;;;4937378;28;20038;-94
2023/01/30 07:23:40;;;;;;;34.42;18.83;;;;;;;;;;4954716;29;20027;-92
2023/01/30 07:39:28;;;;;;;33.92;18.40;;;;;;;;;;5900991;23;20096;-96
2023/01/30 07:42:03;;;;;;;33.35;17.80;;;;;;;;;;4984212;28;20031;-96
2023/01/30 07:45:07;;;;;;;35.10;17.90;;;;;;;;;;4975490;28;20026;-94
2023/01/30 07:47:33;;;;;;;36.78;18.50;;;;;;;;;;4935153;28;20056;-95
2023/01/30 07:50:14;;;;;;;34.42;18.98;;;;;;;;;;4996682;28;20030;-96
2023/01/30 07:53:11;;;;;;;;;;;;;;;;;;;;;
2023/01/30 07:56:10;;;;;;;34.50;19.17;;;;;;;;;;4964554;28;20129;-96
2023/01/30 07:58:38;;;;;;;37.85;19.92;;;;;;;;;;4974930;28;20026;-96
2023/01/30 08:04:16;;;;;;;33.58;19.17;;;;;;;;;;5000656;28;20109;-95
2023/01/30 08:07:00;;;;;;;32.42;17.73;;;;;;;;;;4995077;28;20063;-96
2023/01/30 08:10:10;;;;;;;33.00;17.92;;;;;;;;;;5000182;28;20033;-95
2023/01/30 08:12:52;;;;;;;30.77;16.55;;;;;;;;;;4972255;28;20128;-96
2023/01/30 08:15:47;;;;;;;27.23;16.05;;;;;;;;;;5001783;28;20482;-96
2023/01/30 08:18:43;;;;;;;29.55;16.38;;;;;;;;;;5001756;28;20030;-93
2023/01/30 08:21:25;;;;;;;28.83;16.33;;;;;;;;;;4962623;28;20072;-94
2023/01/30 08:24:14;;;;;;;33.63;16.50;;;;;;;;;;5002044;28;20030;-96
2023/01/30 08:26:50;;;;;;;27.65;15.68;;;;;;;;;;5002164;28;20424;-94
2023/01/30 08:29:56;;;;;;;;;;;;;;;;;;;;;
2023/01/30 08:39:06;;;;;;;22.92;13.98;;;;;;;;;;4936826;29;20099;-96
2023/01/30 08:41:33;;;;;;;24.63;14.13;;;;;;;;;;4932342;28;20479;-93
2023/01/30 10:32:16;;;;;;;15.40;8.63;;;;;;;;;;4087632;23;20027;31
2023/01/30 10:35:34;;;;;;;13.45;8.13;;;;;;;;;;4833273;29;19949;-93
2023/01/30 10:38:24;;;;;;;14.15;9.05;;;;;;;;;;4847797;29;20045;-94
2023/01/30 10:44:20;;;;;;;14.35;7.95;;;;;;;;;;4943750;23;20015;-95
2023/01/30 10:47:17;;;;;;;15.73;9.00;;;;;;;;;;4930518;29;20032;-96
2023/01/30 10:50:02;;;;;;;17.45;9.32;;;;;;;;;;4937257;29;20067;-94
2023/01/30 10:59:33;;;;;;;12.27;7.75;;;;;;;;;;4837617;29;20096;-95
2023/01/30 11:12:16;;;;;;;13.70;7.60;;;;;;;;;;4825335;29;20035;-94
2023/01/30 11:15:14;;;;;;;13.07;7.25;;;;;;;;;;4818036;29;20035;-96
2023/01/30 11:20:52;;;;;;;12.15;6.35;;;;;;;;;;4927353;29;20115;-95
2023/01/30 11:23:33;;;;;;;10.70;6.88;;;;;;;;;;4928229;29;20028;-93
2023/01/30 11:32:39;;;;;;;15.38;6.75;;;;;;;;;;4936461;29;20448;-93
2023/01/30 11:35:39;;;;;;;11.00;6.40;;;;;;;;;;4962951;23;20452;-94
2023/01/30 11:38:33;;;;;;;12.75;7.22;;;;;;;;;;4966924;29;20106;-94
2023/01/30 11:41:11;;;;;;;13.20;6.65;;;;;;;;;;4955787;29;20090;-93
2023/01/30 11:46:55;;;;;;;10.32;7.13;;;;;;;;;;5045267;23;20122;-95
2023/01/30 11:49:31;;;;;;;11.27;6.35;;;;;;;;;;4956436;28;20034;-96
2023/01/30 11:52:33;;;;;;;14.63;7.10;;;;;;;;;;4954959;29;20035;-96
2023/01/30 11:55:28;;;;;;;14.70;6.85;;;;;;;;;;4963772;28;20047;-94
2023/01/30 12:00:57;;;;;;;11.48;6.55;;;;;;;;;;4975781;29;20026;-96
2023/01/30 12:32:29;;;;;;;11.67;6.90;;;;;;;;;;4959898;29;20047;-96
2023/01/30 12:41:53;;;;;;;11.23;6.63;;;;;;;;;;5130909;23;20055;-96
2023/01/30 12:44:40;;;;;;;12.65;7.57;;;;;;;;;;4930419;29;20095;-93
2023/01/30 12:47:21;;;;;;;11.82;6.90;;;;;;;;;;4922216;29;20031;-94
2023/01/30 13:21:01;;;;;;;16.13;8.40;;;;;;;;;;5081483;23;20065;-94
2023/01/30 13:27:13;;;;;;;;;;;;;;;;;;;;;
2023/01/30 14:47:55;;;;;;;9.40;5.90;;;;;;;;;;4435863;23;21253;31
2023/01/30 14:54:27;;;;;;;;;;;;;;;;;;;;;
2023/01/30 14:56:57;;;;;;;9.77;5.82;;;;;;;;;;4865286;29;20401;-95
2023/01/30 15:00:02;;;;;;;;;;;;;;;;;;;;;
2023/01/30 15:02:55;;;;;;;10.55;6.22;;;;;;;;;;4878096;29;20123;-96
2023/01/30 15:09:06;;;;;;;11.27;6.65;;;;;;;;;;4848651;29;20063;-96
2023/01/30 15:15:03;;;;;;;14.88;7.45;;;;;;;;;;4811566;29;20075;-96
2023/01/30 17:43:43;;;;;;;10.88;7.22;;;;;;;;;;5102435;23;20026;31
2023/01/30 17:49:36;;;;;;;12.10;8.00;;;;;;;;;;4889539;29;20419;-95
2023/01/30 17:52:02;;;;;;;12.38;8.07;;;;;;;;;;4837772;29;20072;-96
2023/01/30 18:10:11;;;;;;;;;;;;;;;;;;;;;
2023/01/30 19:50:50;;;;;;;;;;;;;;;;;;;;;
2023/01/30 19:56:36;;;;;;;8.32;5.05;;;;;;;;;;5586318;23;20395;-96
2023/01/30 20:14:52;;;;;;;8.38;4.75;;;;;;;;;;5302337;23;20467;-93
2023/01/30 22:16:23;;;;;;;4.63;2.53;;;;;;;;;;5023599;23;20047;-96
2023/01/30 22:53:22;;;;;;;3.67;1.40;;;;;;;;;;4456289;23;20833;31
